sensor_id;sensor_type;location;lat;lon;timestamp;pressure;altitude;pressure_sealevel;temperature;humidity
24962;BME280;12992;50.884;13.668;2022-08-19T00:01:20;96538.19;;;20.35;100.00
24962;BME280;12992;50.884;13.668;2022-08-19T00:03:46;96536.13;;;20.32;100.00
24962;BME280;12992;50.884;13.668;2022-08-19T00:06:11;96542.91;;;20.34;100.00
24962;BME280;12992;50.884;13.668;2022-08-19T00:08:37;96534.63;;;20.34;100.00
24962;BME280;12992;50.884;13.668;2022-08-19T00:11:02;96533.00;;;20.33;100.00
24962;BME280;12992;50.884;13.668;2022-08-19T00:13:27;96552.38;;;20.33;100.00
24962;BME280;12992;50.884;13.668;2022-08-19T00:15:54;96557.75;;;20.30;100.00
24962;BME280;12992;50.884;13.668;2022-08-19T00:18:20;96564.44;;;20.29;100.00
24962;BME280;12992;50.884;13.668;2022-08-19T00:20:45;96584.19;;;20.40;100.00
24962;BME280;12992;50.884;13.668;2022-08-19T00:23:10;96577.19;;;20.42;100.00
24962;BME280;12992;50.884;13.668;2022-08-19T00:25:36;96571.16;;;20.40;100.00
24962;BME280;12992;50.884;13.668;2022-08-19T00:28:02;96564.50;;;20.41;100.00
24962;BME280;12992;50.884;13.668;2022-08-19T00:30:28;96558.81;;;20.37;100.00
24962;BME280;12992;50.884;13.668;2022-08-19T00:32:53;96557.69;;;20.38;100.00
24962;BME280;12992;50.884;13.668;2022-08-19T00:35:22;96558.03;;;20.37;100.00
24962;BME280;12992;50.884;13.668;2022-08-19T00:37:49;96558.91;;;20.29;100.00
24962;BME280;12992;50.884;13.668;2022-08-19T00:40:15;96546.56;;;20.26;100.00
24962;BME280;12992;50.884;13.668;2022-08-19T00:42:41;96559.84;;;20.33;100.00
24962;BME280;12992;50.884;13.668;2022-08-19T00:45:16;96560.50;;;20.30;100.00
24962;BME280;12992;50.884;13.668;2022-08-19T00:47:43;96562.47;;;20.29;100.00
24962;BME280;12992;50.884;13.668;2022-08-19T00:50:09;96566.38;;;20.28;100.00
24962;BME280;12992;50.884;13.668;2022-08-19T00:52:40;96566.84;;;20.30;100.00
24962;BME280;12992;50.884;13.668;2022-08-19T00:55:13;96562.41;;;20.38;100.00
24962;BME280;12992;50.884;13.668;2022-08-19T00:57:42;96567.94;;;20.38;100.00
24962;BME280;12992;50.884;13.668;2022-08-19T01:00:13;96569.41;;;20.35;100.00
24962;BME280;12992;50.884;13.668;2022-08-19T01:02:40;96567.47;;;20.36;100.00
24962;BME280;12992;50.884;13.668;2022-08-19T01:05:08;96564.88;;;20.31;100.00
24962;BME280;12992;50.884;13.668;2022-08-19T01:07:37;96569.97;;;20.29;100.00
24962;BME280;12992;50.884;13.668;2022-08-19T01:10:06;96583.59;;;20.34;100.00
24962;BME280;12992;50.884;13.668;2022-08-19T01:12:32;96585.41;;;20.30;100.00
24962;BME280;12992;50.884;13.668;2022-08-19T01:14:58;96591.25;;;20.28;100.00
24962;BME280;12992;50.884;13.668;2022-08-19T01:17:24;96587.69;;;20.28;100.00
24962;BME280;12992;50.884;13.668;2022-08-19T01:19:50;96584.00;;;20.24;100.00
24962;BME280;12992;50.884;13.668;2022-08-19T01:22:31;96580.88;;;20.25;100.00
24962;BME280;12992;50.884;13.668;2022-08-19T01:25:00;96584.00;;;20.24;100.00
24962;BME280;12992;50.884;13.668;2022-08-19T01:27:26;96575.53;;;20.20;100.00
24962;BME280;12992;50.884;13.668;2022-08-19T01:29:51;96577.16;;;20.21;100.00
24962;BME280;12992;50.884;13.668;2022-08-19T01:32:17;96581.69;;;20.26;100.00
24962;BME280;12992;50.884;13.668;2022-08-19T01:34:44;96576.63;;;20.28;100.00
24962;BME280;12992;50.884;13.668;2022-08-19T01:37:12;96569.69;;;20.22;100.00
24962;BME280;12992;50.884;13.668;2022-08-19T01:39:39;96571.97;;;20.20;100.00
24962;BME280;12992;50.884;13.668;2022-08-19T01:42:06;96582.22;;;20.19;100.00
24962;BME280;12992;50.884;13.668;2022-08-19T01:44:34;96590.06;;;20.17;100.00
24962;BME280;12992;50.884;13.668;2022-08-19T01:47:01;96588.78;;;20.15;100.00
24962;BME280;12992;50.884;13.668;2022-08-19T01:49:26;96586.66;;;20.12;100.00
24962;BME280;12992;50.884;13.668;2022-08-19T01:51:52;96585.84;;;20.11;100.00
24962;BME280;12992;50.884;13.668;2022-08-19T01:54:21;96576.06;;;20.14;100.00
24962;BME280;12992;50.884;13.668;2022-08-19T01:56:46;96560.03;;;20.07;100.00
24962;BME280;12992;50.884;13.668;2022-08-19T01:59:16;96552.22;;;20.09;100.00
24962;BME280;12992;50.884;13.668;2022-08-19T02:01:42;96547.97;;;20.12;100.00
24962;BME280;12992;50.884;13.668;2022-08-19T02:04:08;96552.69;;;20.11;100.00
24962;BME280;12992;50.884;13.668;2022-08-19T02:06:34;96552.91;;;20.06;100.00
24962;BME280;12992;50.884;13.668;2022-08-19T02:08:59;96569.16;;;20.07;100.00
24962;BME280;12992;50.884;13.668;2022-08-19T02:11:27;96577.22;;;20.13;100.00
24962;BME280;12992;50.884;13.668;2022-08-19T02:13:54;96569.94;;;20.08;100.00
24962;BME280;12992;50.884;13.668;2022-08-19T02:16:20;96575.59;;;20.12;100.00
24962;BME280;12992;50.884;13.668;2022-08-19T02:18:47;96583.44;;;20.09;100.00
24962;BME280;12992;50.884;13.668;2022-08-19T02:21:19;96580.94;;;20.17;100.00
24962;BME280;12992;50.884;13.668;2022-08-19T02:23:45;96573.94;;;20.19;100.00
24962;BME280;12992;50.884;13.668;2022-08-19T02:26:11;96579.81;;;20.18;100.00
24962;BME280;12992;50.884;13.668;2022-08-19T02:28:38;96580.47;;;20.15;100.00
24962;BME280;12992;50.884;13.668;2022-08-19T02:31:03;96574.13;;;20.14;100.00
24962;BME280;12992;50.884;13.668;2022-08-19T02:33:29;96574.91;;;20.23;100.00
24962;BME280;12992;50.884;13.668;2022-08-19T02:35:54;96581.22;;;20.24;100.00
24962;BME280;12992;50.884;13.668;2022-08-19T02:38:20;96573.00;;;20.15;100.00
24962;BME280;12992;50.884;13.668;2022-08-19T02:41:01;96571.84;;;20.16;100.00
24962;BME280;12992;50.884;13.668;2022-08-19T02:43:32;96568.13;;;20.12;100.00
24962;BME280;12992;50.884;13.668;2022-08-19T02:46:02;96567.94;;;20.17;100.00
24962;BME280;12992;50.884;13.668;2022-08-19T02:48:27;96581.13;;;20.12;100.00
24962;BME280;12992;50.884;13.668;2022-08-19T02:50:53;96585.34;;;20.18;100.00
24962;BME280;12992;50.884;13.668;2022-08-19T02:53:29;96589.84;;;20.22;100.00
24962;BME280;12992;50.884;13.668;2022-08-19T02:55:54;96585.34;;;20.18;100.00
24962;BME280;12992;50.884;13.668;2022-08-19T02:58:21;96589.03;;;20.22;100.00
24962;BME280;12992;50.884;13.668;2022-08-19T03:00:50;96584.66;;;20.21;100.00
24962;BME280;12992;50.884;13.668;2022-08-19T03:03:17;96582.09;;;20.16;100.00
24962;BME280;12992;50.884;13.668;2022-08-19T03:05:43;96584.38;;;20.14;100.00
24962;BME280;12992;50.884;13.668;2022-08-19T03:08:09;96576.56;;;20.16;100.00
24962;BME280;12992;50.884;13.668;2022-08-19T03:10:47;96581.28;;;20.15;100.00
24962;BME280;12992;50.884;13.668;2022-08-19T03:13:14;96583.91;;;20.12;100.00
24962;BME280;12992;50.884;13.668;2022-08-19T03:15:45;96584.56;;;20.08;100.00
24962;BME280;12992;50.884;13.668;2022-08-19T03:18:11;96591.72;;;20.09;100.00
24962;BME280;12992;50.884;13.668;2022-08-19T03:20:43;96598.69;;;20.16;100.00
24962;BME280;12992;50.884;13.668;2022-08-19T03:23:08;96593.63;;;20.18;100.00
24962;BME280;12992;50.884;13.668;2022-08-19T03:25:42;96588.91;;;20.18;100.00
24962;BME280;12992;50.884;13.668;2022-08-19T03:28:09;96586.25;;;20.22;100.00
24962;BME280;12992;50.884;13.668;2022-08-19T03:30:35;96590.38;;;20.16;100.00
24962;BME280;12992;50.884;13.668;2022-08-19T03:33:00;96593.63;;;20.18;100.00
24962;BME280;12992;50.884;13.668;2022-08-19T03:35:27;96607.44;;;20.18;100.00
24962;BME280;12992;50.884;13.668;2022-08-19T03:37:52;96595.63;;;20.08;100.00
24962;BME280;12992;50.884;13.668;2022-08-19T03:40:18;96605.53;;;20.09;100.00
24962;BME280;12992;50.884;13.668;2022-08-19T03:42:44;96603.31;;;20.03;100.00
24962;BME280;12992;50.884;13.668;2022-08-19T03:45:11;96594.53;;;20.01;100.00
24962;BME280;12992;50.884;13.668;2022-08-19T03:47:36;96596.97;;;20.02;100.00
24962;BME280;12992;50.884;13.668;2022-08-19T03:50:03;96595.16;;;20.06;100.00
24962;BME280;12992;50.884;13.668;2022-08-19T03:52:29;96593.38;;;20.02;100.00
24962;BME280;12992;50.884;13.668;2022-08-19T03:54:55;96579.78;;;19.97;100.00
24962;BME280;12992;50.884;13.668;2022-08-19T03:57:20;96585.31;;;19.97;100.00
24962;BME280;12992;50.884;13.668;2022-08-19T03:59:45;96583.81;;;19.99;100.00
24962;BME280;12992;50.884;13.668;2022-08-19T04:02:12;96581.41;;;19.98;100.00
24962;BME280;12992;50.884;13.668;2022-08-19T04:04:38;96590.28;;;20.03;100.00
24962;BME280;12992;50.884;13.668;2022-08-19T04:07:05;96586.25;;;20.01;100.00
24962;BME280;12992;50.884;13.668;2022-08-19T04:09:31;96579.28;;;19.95;100.00
24962;BME280;12992;50.884;13.668;2022-08-19T04:11:57;96574.09;;;19.93;100.00
24962;BME280;12992;50.884;13.668;2022-08-19T04:14:26;96584.63;;;20.00;100.00
24962;BME280;12992;50.884;13.668;2022-08-19T04:16:52;96576.13;;;20.05;100.00
24962;BME280;12992;50.884;13.668;2022-08-19T04:19:18;96573.09;;;19.98;100.00
24962;BME280;12992;50.884;13.668;2022-08-19T04:21:46;96577.66;;;19.94;100.00
24962;BME280;12992;50.884;13.668;2022-08-19T04:24:12;96586.44;;;19.96;100.00
24962;BME280;12992;50.884;13.668;2022-08-19T04:26:37;96590.84;;;19.97;100.00
24962;BME280;12992;50.884;13.668;2022-08-19T04:29:07;96583.47;;;20.01;100.00
24962;BME280;12992;50.884;13.668;2022-08-19T04:31:33;96578.75;;;20.01;100.00
24962;BME280;12992;50.884;13.668;2022-08-19T04:34:04;96577.03;;;19.97;100.00
24962;BME280;12992;50.884;13.668;2022-08-19T04:36:32;96588.88;;;19.97;100.00
24962;BME280;12992;50.884;13.668;2022-08-19T04:39:01;96594.19;;;20.02;100.00
24962;BME280;12992;50.884;13.668;2022-08-19T04:41:28;96594.19;;;20.02;100.00
24962;BME280;12992;50.884;13.668;2022-08-19T04:44:34;96591.78;;;20.01;100.00
24962;BME280;12992;50.884;13.668;2022-08-19T04:47:00;96584.75;;;20.03;100.00
24962;BME280;12992;50.884;13.668;2022-08-19T04:49:25;96582.50;;;20.05;100.00
24962;BME280;12992;50.884;13.668;2022-08-19T04:51:53;96594.88;;;19.99;100.00
24962;BME280;12992;50.884;13.668;2022-08-19T04:54:21;96587.56;;;19.95;100.00
24962;BME280;12992;50.884;13.668;2022-08-19T04:56:48;96589.19;;;19.96;100.00
24962;BME280;12992;50.884;13.668;2022-08-19T04:59:15;96580.00;;;19.83;100.00
24962;BME280;12992;50.884;13.668;2022-08-19T05:01:42;96594.50;;;19.80;100.00
24962;BME280;12992;50.884;13.668;2022-08-19T05:04:07;96590.13;;;19.79;100.00
24962;BME280;12992;50.884;13.668;2022-08-19T05:06:34;96590.78;;;19.76;100.00
24962;BME280;12992;50.884;13.668;2022-08-19T05:09:04;96597.63;;;19.70;100.00
24962;BME280;12992;50.884;13.668;2022-08-19T05:11:34;96596.69;;;19.66;100.00
24962;BME280;12992;50.884;13.668;2022-08-19T05:14:00;96610.66;;;19.61;100.00
24962;BME280;12992;50.884;13.668;2022-08-19T05:16:26;96616.34;;;19.56;100.00
24962;BME280;12992;50.884;13.668;2022-08-19T05:18:53;96626.94;;;19.53;100.00
24962;BME280;12992;50.884;13.668;2022-08-19T05:21:38;96626.75;;;19.50;100.00
24962;BME280;12992;50.884;13.668;2022-08-19T05:24:23;96637.00;;;19.49;100.00
24962;BME280;12992;50.884;13.668;2022-08-19T05:26:50;96632.16;;;19.46;100.00
24962;BME280;12992;50.884;13.668;2022-08-19T05:29:18;96646.59;;;19.43;100.00
24962;BME280;12992;50.884;13.668;2022-08-19T05:31:45;96640.59;;;19.41;100.00
24962;BME280;12992;50.884;13.668;2022-08-19T05:34:11;96650.69;;;19.37;100.00
24962;BME280;12992;50.884;13.668;2022-08-19T05:36:40;96653.78;;;19.36;100.00
24962;BME280;12992;50.884;13.668;2022-08-19T05:39:16;96661.88;;;19.41;100.00
24962;BME280;12992;50.884;13.668;2022-08-19T05:41:43;96659.59;;;19.43;100.00
24962;BME280;12992;50.884;13.668;2022-08-19T05:44:09;96661.06;;;19.40;100.00
24962;BME280;12992;50.884;13.668;2022-08-19T05:46:36;96661.88;;;19.41;100.00
24962;BME280;12992;50.884;13.668;2022-08-19T05:49:03;96676.47;;;19.41;100.00
24962;BME280;12992;50.884;13.668;2022-08-19T05:51:29;96682.34;;;19.40;100.00
24962;BME280;12992;50.884;13.668;2022-08-19T05:53:54;96680.88;;;19.42;100.00
24962;BME280;12992;50.884;13.668;2022-08-19T05:56:20;96684.78;;;19.41;100.00
24962;BME280;12992;50.884;13.668;2022-08-19T05:58:45;96690.78;;;19.43;100.00
24962;BME280;12992;50.884;13.668;2022-08-19T06:01:15;96699.22;;;19.47;100.00
24962;BME280;12992;50.884;13.668;2022-08-19T06:03:40;96711.56;;;19.49;100.00
24962;BME280;12992;50.884;13.668;2022-08-19T06:06:08;96713.50;;;19.49;100.00
24962;BME280;12992;50.884;13.668;2022-08-19T06:08:35;96722.13;;;19.47;100.00
24962;BME280;12992;50.884;13.668;2022-08-19T06:11:24;96733.50;;;19.46;100.00
24962;BME280;12992;50.884;13.668;2022-08-19T06:13:53;96734.94;;;19.43;100.00
24962;BME280;12992;50.884;13.668;2022-08-19T06:16:21;96735.59;;;19.49;100.00
24962;BME280;12992;50.884;13.668;2022-08-19T06:18:51;96738.69;;;19.47;100.00
24962;BME280;12992;50.884;13.668;2022-08-19T06:21:22;96739.66;;;19.43;100.00
24962;BME280;12992;50.884;13.668;2022-08-19T06:23:48;96737.25;;;19.41;100.00
24962;BME280;12992;50.884;13.668;2022-08-19T06:26:15;96748.63;;;19.40;100.00
24962;BME280;12992;50.884;13.668;2022-08-19T06:28:41;96755.75;;;19.41;100.00
24962;BME280;12992;50.884;13.668;2022-08-19T06:31:10;96759.50;;;19.36;100.00
24962;BME280;12992;50.884;13.668;2022-08-19T06:33:39;96755.28;;;19.39;100.00
24962;BME280;12992;50.884;13.668;2022-08-19T06:36:04;96756.56;;;19.41;100.00
24962;BME280;12992;50.884;13.668;2022-08-19T06:38:31;96758.84;;;19.39;100.00
24962;BME280;12992;50.884;13.668;2022-08-19T06:41:03;96774.44;;;19.44;100.00
24962;BME280;12992;50.884;13.668;2022-08-19T06:43:29;96774.13;;;19.45;100.00
24962;BME280;12992;50.884;13.668;2022-08-19T06:45:55;96773.13;;;19.41;100.00
24962;BME280;12992;50.884;13.668;2022-08-19T06:48:20;96784.19;;;19.41;100.00
24962;BME280;12992;50.884;13.668;2022-08-19T06:50:45;96775.56;;;19.43;100.00
24962;BME280;12992;50.884;13.668;2022-08-19T06:53:11;96778.19;;;19.39;100.00
24962;BME280;12992;50.884;13.668;2022-08-19T06:55:36;96775.41;;;19.39;100.00
24962;BME280;12992;50.884;13.668;2022-08-19T06:58:03;96777.84;;;19.41;100.00
24962;BME280;12992;50.884;13.668;2022-08-19T07:00:29;96760.13;;;19.42;100.00
24962;BME280;12992;50.884;13.668;2022-08-19T07:02:54;96759.16;;;19.46;100.00
24962;BME280;12992;50.884;13.668;2022-08-19T07:05:19;96759.97;;;19.47;100.00
24962;BME280;12992;50.884;13.668;2022-08-19T07:07:45;96764.69;;;19.46;100.00
24962;BME280;12992;50.884;13.668;2022-08-19T07:10:10;96771.16;;;19.50;100.00
24962;BME280;12992;50.884;13.668;2022-08-19T07:12:36;96773.78;;;19.56;100.00
24962;BME280;12992;50.884;13.668;2022-08-19T07:15:04;96780.44;;;19.55;100.00
24962;BME280;12992;50.884;13.668;2022-08-19T07:17:30;96778.84;;;19.62;100.00
24962;BME280;12992;50.884;13.668;2022-08-19T07:19:56;96778.34;;;19.60;100.00
24962;BME280;12992;50.884;13.668;2022-08-19T07:22:21;96787.75;;;19.59;100.00
24962;BME280;12992;50.884;13.668;2022-08-19T07:24:51;96785.47;;;19.61;100.00
24962;BME280;12992;50.884;13.668;2022-08-19T07:27:16;96778.84;;;19.71;100.00
24962;BME280;12992;50.884;13.668;2022-08-19T07:29:42;96775.72;;;19.72;100.00
24962;BME280;12992;50.884;13.668;2022-08-19T07:32:07;96785.16;;;19.71;100.00
24962;BME280;12992;50.884;13.668;2022-08-19T07:34:34;96772.97;;;19.72;100.00
24962;BME280;12992;50.884;13.668;2022-08-19T07:37:02;96777.50;;;19.77;100.00
24962;BME280;12992;50.884;13.668;2022-08-19T07:39:30;96781.25;;;19.81;100.00
24962;BME280;12992;50.884;13.668;2022-08-19T07:41:57;96776.84;;;19.89;100.00
24962;BME280;12992;50.884;13.668;2022-08-19T07:44:24;96784.13;;;19.93;100.00
24962;BME280;12992;50.884;13.668;2022-08-19T07:46:53;96786.19;;;20.05;100.00
24962;BME280;12992;50.884;13.668;2022-08-19T07:49:19;96786.69;;;20.07;100.00
24962;BME280;12992;50.884;13.668;2022-08-19T07:51:55;96780.97;;;20.12;100.00
24962;BME280;12992;50.884;13.668;2022-08-19T07:54:23;96786.38;;;20.08;100.00
24962;BME280;12992;50.884;13.668;2022-08-19T07:56:49;96792.56;;;20.05;100.00
24962;BME280;12992;50.884;13.668;2022-08-19T07:59:16;96804.25;;;20.02;100.00
24962;BME280;12992;50.884;13.668;2022-08-19T08:01:43;96799.53;;;20.03;100.00
24962;BME280;12992;50.884;13.668;2022-08-19T08:04:09;96807.34;;;20.09;100.00
24962;BME280;12992;50.884;13.668;2022-08-19T08:06:53;96802.28;;;20.12;100.00
24962;BME280;12992;50.884;13.668;2022-08-19T08:09:41;96798.03;;;20.14;100.00
24962;BME280;12992;50.884;13.668;2022-08-19T08:12:12;96799.34;;;20.17;100.00
24962;BME280;12992;50.884;13.668;2022-08-19T08:14:49;96805.81;;;20.21;100.00
24962;BME280;12992;50.884;13.668;2022-08-19T08:17:16;96810.72;;;20.24;100.00
24962;BME280;12992;50.884;13.668;2022-08-19T08:19:43;96803.53;;;20.23;100.00
24962;BME280;12992;50.884;13.668;2022-08-19T08:22:10;96804.69;;;20.22;100.00
24962;BME280;12992;50.884;13.668;2022-08-19T08:24:55;96804.03;;;20.25;100.00
24962;BME280;12992;50.884;13.668;2022-08-19T08:27:23;96807.75;;;20.29;100.00
24962;BME280;12992;50.884;13.668;2022-08-19T08:29:49;96818.00;;;20.28;100.00
24962;BME280;12992;50.884;13.668;2022-08-19T08:32:14;96819.81;;;20.24;100.00
24962;BME280;12992;50.884;13.668;2022-08-19T08:34:39;96816.72;;;20.26;100.00
24962;BME280;12992;50.884;13.668;2022-08-19T08:37:05;96812.94;;;20.30;100.00
24962;BME280;12992;50.884;13.668;2022-08-19T08:39:30;96807.88;;;20.41;100.00
24962;BME280;12992;50.884;13.668;2022-08-19T08:42:06;96801.03;;;20.47;100.00
24962;BME280;12992;50.884;13.668;2022-08-19T08:47:29;96821.72;;;20.50;100.00
24962;BME280;12992;50.884;13.668;2022-08-19T08:50:03;96825.00;;;20.34;100.00
24962;BME280;12992;50.884;13.668;2022-08-19T08:52:45;96818.94;;;20.41;100.00
24962;BME280;12992;50.884;13.668;2022-08-19T08:55:15;96821.72;;;20.50;100.00
24962;BME280;12992;50.884;13.668;2022-08-19T09:00:18;96825.78;;;20.35;100.00
24962;BME280;12992;50.884;13.668;2022-08-19T09:02:44;96832.13;;;20.44;100.00
24962;BME280;12992;50.884;13.668;2022-08-19T09:05:11;96827.34;;;20.62;100.00
24962;BME280;12992;50.884;13.668;2022-08-19T09:07:53;96832.13;;;20.82;100.00
24962;BME280;12992;50.884;13.668;2022-08-19T09:10:34;96839.31;;;21.04;100.00
24962;BME280;12992;50.884;13.668;2022-08-19T09:13:11;96837.97;;;21.40;100.00
24962;BME280;12992;50.884;13.668;2022-08-19T09:15:46;96827.59;;;21.70;100.00
24962;BME280;12992;50.884;13.668;2022-08-19T09:18:13;96821.38;;;21.73;100.00
24962;BME280;12992;50.884;13.668;2022-08-19T09:20:39;96816.81;;;21.56;100.00
24962;BME280;12992;50.884;13.668;2022-08-19T09:23:04;96802.34;;;21.51;100.00
24962;BME280;12992;50.884;13.668;2022-08-19T09:25:29;96816.28;;;21.42;100.00
24962;BME280;12992;50.884;13.668;2022-08-19T09:27:57;96805.38;;;21.37;100.00
24962;BME280;12992;50.884;13.668;2022-08-19T09:30:30;96802.84;;;21.32;100.00
24962;BME280;12992;50.884;13.668;2022-08-19T09:32:55;96810.63;;;21.38;100.00
24962;BME280;12992;50.884;13.668;2022-08-19T09:35:22;96802.25;;;21.17;100.00
24962;BME280;12992;50.884;13.668;2022-08-19T09:37:49;96808.03;;;21.33;100.00
24962;BME280;12992;50.884;13.668;2022-08-19T09:40:15;96818.84;;;21.47;100.00
24962;BME280;12992;50.884;13.668;2022-08-19T09:42:41;96808.56;;;21.27;100.00
24962;BME280;12992;50.884;13.668;2022-08-19T09:45:09;96822.91;;;21.49;100.00
24962;BME280;12992;50.884;13.668;2022-08-19T09:47:35;96828.38;;;21.58;100.00
24962;BME280;12992;50.884;13.668;2022-08-19T09:50:08;96820.06;;;21.58;100.00
24962;BME280;12992;50.884;13.668;2022-08-19T09:52:34;96829.28;;;21.62;100.00
24962;BME280;12992;50.884;13.668;2022-08-19T09:55:04;96823.16;;;21.57;100.00
24962;BME280;12992;50.884;13.668;2022-08-19T09:57:30;96837.59;;;21.62;100.00
24962;BME280;12992;50.884;13.668;2022-08-19T09:59:56;96823.22;;;21.69;100.00
24962;BME280;12992;50.884;13.668;2022-08-19T10:02:21;96818.13;;;21.71;100.00
24962;BME280;12992;50.884;13.668;2022-08-19T10:04:46;96829.88;;;21.89;100.00
24962;BME280;12992;50.884;13.668;2022-08-19T10:07:30;96831.75;;;21.97;100.00
24962;BME280;12992;50.884;13.668;2022-08-19T10:09:56;96837.19;;;22.05;100.00
24962;BME280;12992;50.884;13.668;2022-08-19T10:12:21;96830.22;;;21.87;100.00
24962;BME280;12992;50.884;13.668;2022-08-19T10:14:47;96840.88;;;21.97;100.00
24962;BME280;12992;50.884;13.668;2022-08-19T10:17:13;96848.69;;;22.16;100.00
24962;BME280;12992;50.884;13.668;2022-08-19T10:19:39;96845.69;;;22.09;100.00
24962;BME280;12992;50.884;13.668;2022-08-19T10:22:06;96840.06;;;21.97;100.00
24962;BME280;12992;50.884;13.668;2022-08-19T10:24:33;96852.69;;;22.06;100.00
24962;BME280;12992;50.884;13.668;2022-08-19T10:26:59;96844.19;;;22.12;100.00
24962;BME280;12992;50.884;13.668;2022-08-19T10:29:26;96837.72;;;21.87;100.00
24962;BME280;12992;50.884;13.668;2022-08-19T10:31:53;96832.59;;;21.76;100.00
24962;BME280;12992;50.884;13.668;2022-08-19T10:34:18;96841.47;;;22.03;100.00
24962;BME280;12992;50.884;13.668;2022-08-19T10:36:44;96846.97;;;22.12;100.00
24962;BME280;12992;50.884;13.668;2022-08-19T10:39:10;96859.94;;;22.20;100.00
24962;BME280;12992;50.884;13.668;2022-08-19T10:41:38;96854.13;;;22.13;100.00
24962;BME280;12992;50.884;13.668;2022-08-19T10:44:11;96856.56;;;22.14;100.00
24962;BME280;12992;50.884;13.668;2022-08-19T10:46:40;96852.69;;;22.06;100.00
24962;BME280;12992;50.884;13.668;2022-08-19T10:49:07;96860.81;;;21.91;100.00
24962;BME280;12992;50.884;13.668;2022-08-19T10:51:33;96855.66;;;21.68;100.00
24962;BME280;12992;50.884;13.668;2022-08-19T10:54:17;96859.13;;;21.65;100.00
24962;BME280;12992;50.884;13.668;2022-08-19T10:56:44;96865.72;;;21.52;100.00
24962;BME280;12992;50.884;13.668;2022-08-19T10:59:22;96875.44;;;21.37;100.00
24962;BME280;12992;50.884;13.668;2022-08-19T11:01:48;96877.31;;;21.25;100.00
24962;BME280;12992;50.884;13.668;2022-08-19T11:04:14;96885.78;;;21.19;100.00
24962;BME280;12992;50.884;13.668;2022-08-19T11:06:44;96883.06;;;21.11;100.00
24962;BME280;12992;50.884;13.668;2022-08-19T11:09:13;96884.44;;;21.05;100.00
24962;BME280;12992;50.884;13.668;2022-08-19T11:11:39;96877.69;;;21.14;100.00
24962;BME280;12992;50.884;13.668;2022-08-19T11:14:10;96881.78;;;21.38;100.00
24962;BME280;12992;50.884;13.668;2022-08-19T11:16:36;96887.50;;;21.41;100.00
24962;BME280;12992;50.884;13.668;2022-08-19T11:19:02;96883.31;;;21.56;100.00
24962;BME280;12992;50.884;13.668;2022-08-19T11:21:30;96883.72;;;21.67;100.00
24962;BME280;12992;50.884;13.668;2022-08-19T11:24:00;96878.44;;;21.74;100.00
24962;BME280;12992;50.884;13.668;2022-08-19T11:26:26;96878.16;;;21.88;100.00
24962;BME280;12992;50.884;13.668;2022-08-19T11:28:52;96884.22;;;22.02;100.00
24962;BME280;12992;50.884;13.668;2022-08-19T11:31:22;96881.97;;;22.16;100.00
24962;BME280;12992;50.884;13.668;2022-08-19T11:33:47;96883.56;;;22.38;100.00
24962;BME280;12992;50.884;13.668;2022-08-19T11:36:16;96883.72;;;22.54;100.00
24962;BME280;12992;50.884;13.668;2022-08-19T11:38:43;96872.06;;;22.73;100.00
24962;BME280;12992;50.884;13.668;2022-08-19T11:41:09;96871.06;;;22.89;100.00
24962;BME280;12992;50.884;13.668;2022-08-19T11:43:35;96883.91;;;23.18;100.00
24962;BME280;12992;50.884;13.668;2022-08-19T11:46:04;96889.19;;;23.48;100.00
24962;BME280;12992;50.884;13.668;2022-08-19T11:48:32;96884.84;;;23.87;100.00
24962;BME280;12992;50.884;13.668;2022-08-19T11:50:57;96879.38;;;24.19;100.00
24962;BME280;12992;50.884;13.668;2022-08-19T11:53:23;96870.38;;;24.38;100.00
24962;BME280;12992;50.884;13.668;2022-08-19T11:55:48;96877.66;;;24.42;100.00
24962;BME280;12992;50.884;13.668;2022-08-19T11:58:15;96873.75;;;24.31;100.00
24962;BME280;12992;50.884;13.668;2022-08-19T12:00:42;96878.66;;;23.94;100.00
24962;BME280;12992;50.884;13.668;2022-08-19T12:03:10;96880.97;;;23.64;100.00
24962;BME280;12992;50.884;13.668;2022-08-19T12:05:37;96881.00;;;23.27;100.00
24962;BME280;12992;50.884;13.668;2022-08-19T12:08:03;96882.63;;;23.16;100.00
24962;BME280;12992;50.884;13.668;2022-08-19T12:10:29;96873.56;;;22.82;100.00
24962;BME280;12992;50.884;13.668;2022-08-19T12:12:54;96870.31;;;22.56;100.00
24962;BME280;12992;50.884;13.668;2022-08-19T12:15:19;96893.50;;;22.39;100.00
24962;BME280;12992;50.884;13.668;2022-08-19T12:17:45;96873.91;;;22.23;100.00
24962;BME280;12992;50.884;13.668;2022-08-19T12:20:11;96887.44;;;21.92;100.00
24962;BME280;12992;50.884;13.668;2022-08-19T12:22:39;96891.13;;;21.96;100.00
24962;BME280;12992;50.884;13.668;2022-08-19T12:25:07;96885.47;;;21.92;100.00
24962;BME280;12992;50.884;13.668;2022-08-19T12:27:33;96891.81;;;21.72;100.00
24962;BME280;12992;50.884;13.668;2022-08-19T12:30:01;96897.09;;;21.86;100.00
24962;BME280;12992;50.884;13.668;2022-08-19T12:32:26;96902.97;;;21.84;100.00
24962;BME280;12992;50.884;13.668;2022-08-19T12:34:52;96896.41;;;21.68;100.00
24962;BME280;12992;50.884;13.668;2022-08-19T12:37:17;96896.16;;;21.61;100.00
24962;BME280;12992;50.884;13.668;2022-08-19T12:39:43;96900.75;;;21.57;100.00
24962;BME280;12992;50.884;13.668;2022-08-19T12:42:12;96893.16;;;21.45;100.00
24962;BME280;12992;50.884;13.668;2022-08-19T12:44:40;96895.94;;;21.45;100.00
24962;BME280;12992;50.884;13.668;2022-08-19T12:47:06;96902.28;;;21.45;100.00
24962;BME280;12992;50.884;13.668;2022-08-19T12:49:34;96905.66;;;21.51;100.00